Timeline UpdatesTrip UpdatesNews PostsPvt Posts♥♥Travel TipsAdmin PostsConv PostsFollowed PostsChat RequestsBlog PostsPNR Posts

Disclaimer
Search
 
 
Tue Oct 21, 2014 23:49:52 ISTHomeTrainsΣChainsAtlasPNRForumGalleryNewsFAQTripsMembersLoginFeedback
No Recent News for this Train
Other Trains in the News **new
Latest...
⇐ Return Journey: Train# 54378

54377/Prayag-Bareilly Passenger (UnReserved)

Time-Table HAS CHANGED.
Sep 03 2014 (9:27AM)
Change Departure Station:
Change Arrival Station:
Post a Train Travel TipPost a Train Travel Tip **new
Post a Comment/Question/Picture/VideoPost a Comment/Question/Picture/Video
Pantry/Catering
???
RSA - Rake Sharing
Rake/Coach Composition
Loco
News    PNR    Forum    Time-Table    Availability    Fare Chart    Map    Arr/Dep History    Trips    Gallery    ΣChains    X/O    Timeline    
Travel Time: 5h 23m    22 halts    Distance: 150 km    Avg Speed: 27 km/hr
Type: Passenger
Zone: NR/Northern
Departs @ 10:27 (Avg 1h 22m late)
Platform# ???
SMTWTFS
Masit/MST 
Arrives @ 15:50 (Avg 37m late)
Platform# 3
SMTWTFS
Bareilly Junction/BE 

22 halts. 24 intermediate Stations between Masit and Bareilly Junction

Show ALL intermediate Stations  Show Old Time-Table

#TrkCodeStation NameX/OArrivesAvgDepartsAvgHaltPFDay#KmSpeedElevZoneAddress
1|--|ARPAtrampur  02:25 01:01+1902:26 01:03+211 2m--1-258.553105mNRAtrampur Railway Station, Uttar Pradesh
2%--%RMCRam Chaura Road  02:34 01:11+2002:35 01:13+201 2m--1-251.552103mNRAnapur - Mansurabad Road, Uttar Pradesh
3%--%LGOLalgopalGanj  02:43 01:21+2002:44 01:23+201 2m--1-244.655104mNRLal Gopalganj, Uttar Pradesh
4%--%BHDRBhadri  02:52 01:31+1902:53 01:33+191 2m--1-237.243106mNRNational Highway 24B, Uttar Pradesh
5%--%KHNMKunda Harnamganj (2)  03:02 01:43+1503:03 01:45+151 2m--1-230.147110mNRKunda, Uttar Pradesh
6%--%GRMRGarhi Manikpur  03:15 02:00+1603:16 02:02+161 2m--1-218.339113mNRGarhi Manikpur, Uttar Pradesh
7%--%PQNPariawan Kalakankar Road  03:25 02:13+1603:26 02:15+171 2m--1-211.143115mNRPwn Klaknder Rd, Uttar Pradesh
8%--|ARKAArkha  03:35 02:27+1603:36 02:29+161 2m--1-202.515115mNRLucknow Allahabad Rd, Uttar Pradesh
9|--|UCRUnchahar Junction  03:44 02:38+1503:45 02:40+171 2m--1-200.252116mNRUnchahar, Uttar Pradesh
10|--|RCPRamachandrapur  03:56 02:53-03:57 02:55-1 2m--1-189.028114mNRLucknow Allahabad Rd, Uttar Pradesh
11|--|LMNLachhmanpurX  04:05 03:08+1604:06 03:10+191 2m--1-183.032119mNRUnchahar, Uttar Pradesh
12|--|DYPDaryapur Junction  04:19 03:38+1504:20 03:40+181 2m--1-168.318115mNRNational Highway 24B, Uttar Pradesh
13|--|RBLRae Bareli Junction (4)X  04:35 04:00+1604:40 04:33+165 33m--1-162.446116mNRRaebareli, Uttar Pradesh
14!==!GANGGangaGanj (2)  04:51 04:43+1404:52 04:45+191 2m--1-154.760118mNRBachhrawan, Uttar Pradesh
15!==!HCPHarchandpur (3)  04:58 04:52+2004:59 04:54+241 2m--1-147.642118mNRRae Bareli, Uttar Pradesh
16!==!KVGKundanganj (2)  05:07 05:03+2105:08 05:05+281 2m--1-141.352119mNRHarchandpur, Uttar Pradesh
17!==!BCNBachhrawan (2)X  05:19 05:16+2705:20 05:18+301 2m--1-131.714124mNRLucknow, Uttar Pradesh
18!==!SAGRShrirajnagar (1)X  05:44 05:43+1705:45+231 2m11-126.020122mNRMohanlalGanj, Uttar Pradesh
19!==!NHNNigohan (1)X  06:04 06:03+1606:05+271 2m11-120.119120mNRLucknow, Uttar Pradesh
20!==!KKAHKankaha (1)  06:28 06:27+1506:29+271 2m11-113.140125mNRBachhrawan, Uttar Pradesh
21!==!MLJMohanlalGanj (1)  06:42 06:41+2806:43+311 2m11-105.132124mNRMohanlalganj, Uttar Pradesh
22!==/UTRUtraitia Junction (2)  07:00 06:59+3107:01+491 2m--1-96.719124mNRLucknow, Uttar Pradesh
23/==/BHAWBlock Hut A new halt!!X  07:15+4607:17+462m--1-92.219121mNRLucknow, Uttar Pradesh
24/==/LBHDilkusha Cabin new halt!!  07:28+5707:30+562m--1-88.717116mNRLucknow, Uttar Pradesh
25/==/LKOLucknow Charbagh NR (9)XO  07:45+5308:20+5035m51-84.523123mNR226004, Uttar Pradesh
26/==/AMGAlamnagar (3)X  08:37 08:38+2408:38 08:39+261m--1-77.565126mNRLucknow, Uttar Pradesh
27/==/KKJKakori (3)X  08:47 08:46+5408:48+551 2m--1-69.964129mNRSH 25, Uttar Pradesh
28/==/MLDMalihabadX  08:58 08:57+5508:59+591 2m--1-60.349130mNRMalihabad, Uttar Pradesh
29/==/DILDilawarnagarX  09:07 09:06+5909:08+1:001 2m--1-54.646133mNRSH 25, Uttar Pradesh
30/==/RBDRahimabadX  09:17 09:18+1:0009:18 09:20+1:011 2m--1-47.066132mNRSH 25, Uttar Pradesh
31/==/SANSandila (3)  09:29 09:30+1:0009:30 09:32+1:021 2m--1-36.045132mNRSandila, Uttar Pradesh
32/==/UTAUmar TaliO  09:36 09:39+1:0209:37 09:41+1:031 2m--1-30.748135mNRHardoi, Uttar Pradesh
33/==/DLQDalelnagar  09:46 09:49+1:0109:47 09:51+1:091 2m--1-24.352136mNRSH 25, Uttar Pradesh
34/==/BLMBalamau Junction (4)X  09:53 10:01+1:1309:58 10:06+1:195m--1-15.758139mNRBalamau, Uttar Pradesh
35/==/BGHBaghauliX  10:11 10:15+1:1610:12 10:17+1:161 2m--1-6.952141mNRsharda nehar, Uttar Pradesh
36/==/MSTMasit»  10:21 10:25+1:1810:22 10:27+1:221 2m--10.056141mNRSH 25, Uttar Pradesh
37/==/KARKarnaX  10:31 10:35+1:2110:32 10:37+1:211 2m--17.559143mNRHardoi, Uttar Pradesh
38/==/HRIHardoi (5)  10:43 10:47+5410:44 10:52+561 5m--117.456146mNRHardoi, Uttar Pradesh
39/==/KUFKaurhaX  10:57 11:01+1:2710:58 11:03+1:281 2m--125.859148mNRSH 25, Uttar Pradesh
40/==/BEGBehtagokul  11:08 11:12+1:2611:09 11:14+1:261 2m--134.655152mNRBehtagokul, Uttar Pradesh
41/==/TDPTodarpur  11:17 11:21+1:2611:18 11:23+1:271 2m--141.131147mNRSH 25, Uttar Pradesh
42/==/SHRMSharmaX  11:24 11:28-11:25 11:29-1m--143.651150mNRSH 25, Uttar Pradesh
43/==/AJIAnjhi ShahabadX  11:32 11:36+1:2611:33 11:38+1:261 2m--149.554148mNRAnjhi Shahabad, Uttar Pradesh
44/==/AIGAlgawan  11:41 11:45+1:2711:42 11:47+1:281 2m--155.864152mNRAlgawan, Uttar Pradesh
45/==/KHKahiliya  11:51 11:55+1:2711:52 11:57+1:271 2m--164.444152mNRSH 25, Uttar Pradesh
46/==/PRPMPt Ram Prasad Bismil new halt!!  12:03+2:1512:04+2:161m--168.88154mNRState Highway 25, Uttar Pradesh
47/==/ROZARoza Junction (4)X  12:36 12:37+1:0112:37 12:39+1:351 2m--172.948156mNRShahjahanpur, Uttar Pradesh
48/==/SXKShahjahanpur CourtX  12:45 12:46+1512:46 12:47+151m--178.67160mNRShahjahanpur, Uttar Pradesh
49/==/SPNShahjahanpur Junction (3)X  12:55+2413:00+245m--179.556156mNRShahjahanpur, Uttar Pradesh
50/==/BTRABanthraO  13:09+1:3613:10 13:11+1:411 2m--187.942154mNRNH 24, Uttar Pradesh
51/==/BHDHBahadurpur HaltX  13:17 13:19-13:18 13:20-1m--193.535154mNRNH 24, Uttar Pradesh
52/==/TLHTilhar  13:25 13:27+1:3813:26 13:29+1:391 2m--197.758163mNRTilhar, Uttar Pradesh
53/==/MKMiranpur Katra  13:36 13:39+1:3813:37 13:41+1:441 2m--1107.439162mNRShahjahanpur, Uttar Pradesh
54/==/BLPUBilpur  13:46 13:52+1:4513:47 13:54+1:561 2m--1114.647161mNRFatehganj, Uttar Pradesh
55/==/TSATisuaXO  13:56 14:03+1:5513:57 14:04+1:561m--1121.651165mNRNational Highway 24, Uttar Pradesh
56/==/PMRPitambarpur  14:07 14:14+1:5314:08 14:16+1:581 2m--1130.157171mNRPitambarpur, Uttar Pradesh
57/==/RYSRasuriyaX  14:18 14:26+1:4114:19 14:28+1:411 2m--1139.650174mNRNH 24, Uttar Pradesh
58/==/CHTIChanehti Junction  14:28 14:36+2:0914:29 14:38+2:091 2m--1146.33168mNRBareilly, Uttar Pradesh
59/==/BEBareilly Junction (4)•  15:10 15:50+37-31150.0-174mNRBareilly, Uttar Pradesh
Scroll to Top
Scroll to Bottom